createdAt,value
2023-04-04T00:00:20.003Z,3.70
2023-04-04T00:02:46.899Z,3.80
2023-04-04T00:05:14.121Z,3.80
2023-04-04T00:07:41.230Z,3.90
2023-04-04T00:10:08.672Z,3.70
2023-04-04T00:12:36.548Z,3.70
2023-04-04T00:15:04.038Z,3.70
2023-04-04T00:17:30.969Z,3.70
2023-04-04T00:19:58.060Z,3.80
2023-04-04T00:22:25.979Z,3.80
2023-04-04T00:24:52.893Z,3.70
2023-04-04T00:27:19.607Z,3.70
2023-04-04T00:29:46.829Z,3.70
2023-04-04T00:32:13.715Z,3.80
2023-04-04T00:34:40.641Z,3.80
2023-04-04T00:37:07.576Z,3.80
2023-04-04T00:39:34.610Z,3.90
2023-04-04T00:42:01.947Z,3.80
2023-04-04T00:44:30.631Z,3.80
2023-04-04T00:46:57.507Z,3.80
2023-04-04T00:49:24.285Z,3.80
2023-04-04T00:51:51.096Z,3.80
2023-04-04T00:54:17.993Z,3.80
2023-04-04T00:56:44.827Z,3.80
2023-04-04T00:59:11.960Z,3.80
2023-04-04T01:01:38.992Z,3.80
2023-04-04T01:04:06.227Z,3.80
2023-04-04T01:06:33.241Z,3.80
2023-04-04T01:09:00.164Z,3.80
2023-04-04T01:11:28.549Z,3.80
2023-04-04T01:13:55.907Z,3.80
2023-04-04T01:16:24.241Z,3.70
2023-04-04T01:18:52.565Z,3.80
2023-04-04T01:21:21.849Z,3.70
2023-04-04T01:24:01.571Z,3.80
2023-04-04T01:26:29.134Z,3.80
2023-04-04T01:28:57.252Z,3.70
2023-04-04T01:31:46.554Z,3.60
2023-04-04T01:34:31.992Z,3.70
2023-04-04T01:37:07.692Z,3.80
2023-04-04T01:39:48.297Z,3.80
2023-04-04T01:42:16.957Z,3.70
2023-04-04T01:44:44.369Z,3.70
2023-04-04T01:47:13.122Z,3.70
2023-04-04T01:49:39.956Z,3.60
2023-04-04T01:52:07.449Z,3.70
2023-04-04T01:54:36.032Z,3.60
2023-04-04T01:57:03.035Z,3.50
2023-04-04T01:59:30.022Z,3.70
2023-04-04T02:01:57.715Z,3.70
2023-04-04T02:04:24.699Z,3.80
2023-04-04T02:06:52.743Z,3.70
2023-04-04T02:09:19.722Z,3.70
2023-04-04T02:11:46.539Z,3.70
2023-04-04T02:14:13.356Z,3.70
2023-04-04T02:16:40.320Z,3.60
2023-04-04T02:19:07.092Z,3.60
2023-04-04T02:21:33.863Z,3.60
2023-04-04T02:24:00.669Z,3.60
2023-04-04T02:26:27.436Z,3.60
2023-04-04T02:28:54.263Z,3.60
2023-04-04T02:31:21.801Z,3.70
2023-04-04T02:33:48.842Z,3.60
2023-04-04T02:36:16.257Z,3.50
2023-04-04T02:38:43.061Z,3.50
2023-04-04T02:41:09.897Z,3.50
2023-04-04T02:43:36.708Z,3.50
2023-04-04T02:46:10.978Z,3.60
2023-04-04T02:48:45.664Z,3.60
2023-04-04T02:51:12.441Z,3.60
2023-04-04T02:53:39.274Z,3.60
2023-04-04T02:56:06.575Z,3.50
2023-04-04T02:58:34.402Z,3.40
2023-04-04T03:01:01.283Z,3.50
2023-04-04T03:03:28.220Z,3.60
2023-04-04T03:05:55.152Z,3.60
2023-04-04T03:08:22.566Z,3.60
2023-04-04T03:10:49.383Z,3.50
2023-04-04T03:13:16.251Z,3.50
2023-04-04T03:15:43.850Z,3.50
2023-04-04T03:18:14.397Z,3.50
2023-04-04T03:20:41.496Z,3.50
2023-04-04T03:23:08.501Z,3.60
2023-04-04T03:25:35.621Z,3.60
2023-04-04T03:28:11.645Z,3.50
2023-04-04T03:30:39.005Z,3.50
2023-04-04T03:33:09.906Z,3.50
2023-04-04T03:35:40.223Z,3.60
2023-04-04T03:38:07.929Z,3.50
2023-04-04T03:40:34.816Z,3.40
2023-04-04T03:43:02.513Z,3.40
2023-04-04T03:45:32.900Z,3.50
2023-04-04T03:47:59.716Z,3.50
2023-04-04T03:50:26.542Z,3.50
2023-04-04T03:52:53.397Z,3.40
2023-04-04T03:55:20.173Z,3.50
2023-04-04T03:57:47.181Z,3.40
2023-04-04T04:00:14.358Z,3.50
2023-04-04T04:02:41.391Z,3.50
2023-04-04T04:05:09.244Z,3.40
2023-04-04T04:07:36.193Z,3.50
2023-04-04T04:10:03.431Z,3.50
2023-04-04T04:12:30.277Z,3.50
2023-04-04T04:14:57.031Z,3.50
2023-04-04T04:17:23.957Z,3.50
2023-04-04T04:19:50.996Z,3.50
2023-04-04T04:22:17.759Z,3.50
2023-04-04T04:24:44.656Z,3.60
2023-04-04T04:27:11.717Z,3.50
2023-04-04T04:29:38.456Z,3.50
2023-04-04T04:32:05.296Z,3.50
2023-04-04T04:34:32.405Z,3.50
2023-04-04T04:36:59.375Z,3.50
2023-04-04T04:39:26.154Z,3.40
2023-04-04T04:41:53.366Z,3.40
2023-04-04T04:44:20.312Z,3.40
2023-04-04T04:46:47.143Z,3.40
2023-04-04T04:49:13.968Z,3.40
2023-04-04T04:51:42.500Z,3.40
2023-04-04T04:54:09.733Z,3.40
2023-04-04T04:56:36.866Z,3.40
2023-04-04T04:59:04.125Z,3.50
2023-04-04T05:01:30.993Z,3.50
2023-04-04T05:03:57.994Z,3.50
2023-04-04T05:06:24.872Z,3.50
2023-04-04T05:08:51.864Z,3.60
2023-04-04T05:11:18.756Z,3.50
2023-04-04T05:13:45.660Z,3.40
2023-04-04T05:16:12.522Z,3.50
2023-04-04T05:18:39.328Z,3.50
2023-04-04T05:21:06.190Z,3.40
2023-04-04T05:23:32.958Z,3.40
2023-04-04T05:25:59.707Z,3.40
2023-04-04T05:28:26.516Z,3.50
2023-04-04T05:30:53.856Z,3.40
2023-04-04T05:33:20.697Z,3.40
2023-04-04T05:35:47.534Z,3.40
2023-04-04T05:38:14.571Z,3.60
2023-04-04T05:40:41.585Z,3.60
2023-04-04T05:43:09.424Z,3.60
2023-04-04T05:45:36.967Z,3.60
2023-04-04T05:48:04.525Z,3.70
2023-04-04T05:50:31.600Z,3.80
2023-04-04T05:52:58.888Z,3.80
2023-04-04T05:55:25.678Z,3.90
2023-04-04T05:57:52.888Z,4.00
2023-04-04T06:00:19.828Z,4.00
2023-04-04T06:02:46.990Z,3.80
2023-04-04T06:05:14.107Z,3.80
2023-04-04T06:07:41.150Z,4.00
2023-04-04T06:10:08.956Z,4.00
2023-04-04T06:12:35.785Z,4.00
2023-04-04T06:15:02.611Z,3.90
2023-04-04T06:17:29.400Z,3.80
2023-04-04T06:19:56.658Z,3.70
2023-04-04T06:22:23.496Z,3.80
2023-04-04T06:24:50.440Z,3.80
2023-04-04T06:27:17.216Z,3.90
2023-04-04T06:29:44.107Z,4.00
2023-04-04T06:32:11.271Z,3.90
2023-04-04T06:34:38.483Z,4.00
2023-04-04T06:37:05.228Z,4.10
2023-04-04T06:39:34.292Z,4.00
2023-04-04T06:42:01.583Z,3.90
2023-04-04T06:44:28.509Z,4.00
2023-04-04T06:46:55.390Z,4.20
2023-04-04T06:49:22.205Z,4.20
2023-04-04T06:51:50.821Z,4.10
2023-04-04T06:54:17.790Z,4.20
2023-04-04T06:56:44.599Z,4.30
2023-04-04T06:59:12.692Z,4.30
2023-04-04T07:01:39.548Z,4.30
2023-04-04T07:04:06.396Z,4.30
2023-04-04T07:06:33.272Z,4.20
2023-04-04T07:09:00.216Z,4.10
2023-04-04T07:11:27.202Z,4.10
2023-04-04T07:13:54.181Z,4.10
2023-04-04T07:16:21.174Z,4.30
2023-04-04T07:18:48.038Z,4.40
2023-04-04T07:21:16.245Z,4.30
2023-04-04T07:23:46.316Z,4.30
2023-04-04T07:26:13.122Z,4.30
2023-04-04T07:28:39.875Z,4.20
2023-04-04T07:31:06.700Z,4.20
2023-04-04T07:33:33.490Z,4.30
2023-04-04T07:36:03.624Z,4.40
2023-04-04T07:38:30.476Z,4.50
2023-04-04T07:40:57.309Z,4.50
2023-04-04T07:43:24.156Z,4.40
2023-04-04T07:45:51.026Z,4.40
2023-04-04T07:48:19.279Z,4.40
2023-04-04T07:50:46.870Z,4.40
2023-04-04T07:53:13.687Z,4.40
2023-04-04T07:55:40.530Z,5.90
2023-04-04T07:58:07.449Z,5.30
2023-04-04T08:00:34.266Z,5.20
2023-04-04T08:03:02.609Z,5.00
2023-04-04T08:05:29.595Z,5.00
2023-04-04T08:07:56.460Z,4.90
2023-04-04T08:10:23.223Z,4.80
2023-04-04T08:12:50.051Z,4.70
2023-04-04T08:15:16.951Z,4.70
2023-04-04T08:17:43.803Z,4.90
2023-04-04T08:20:11.452Z,4.90
2023-04-04T08:22:40.163Z,4.90
2023-04-04T08:25:07.216Z,4.90
2023-04-04T08:27:34.204Z,4.90
2023-04-04T08:30:03.840Z,4.90
2023-04-04T08:32:32.161Z,4.80
2023-04-04T08:34:59.348Z,4.80
2023-04-04T08:37:26.128Z,4.90
2023-04-04T08:39:53.090Z,5.10
2023-04-04T08:42:20.827Z,5.20
2023-04-04T08:44:52.245Z,5.30
2023-04-04T08:47:21.588Z,5.20
2023-04-04T08:49:51.634Z,5.20
2023-04-04T08:52:20.691Z,5.10
2023-04-04T08:54:50.212Z,5.30
2023-04-04T08:57:17.287Z,5.30
2023-04-04T08:59:44.417Z,5.20
2023-04-04T09:02:11.944Z,5.10
2023-04-04T09:04:43.036Z,5.10
2023-04-04T09:07:10.579Z,5.00
2023-04-04T09:09:38.874Z,5.10
2023-04-04T09:12:06.784Z,5.10
2023-04-04T09:14:35.160Z,5.10
2023-04-04T09:17:02.270Z,5.00
2023-04-04T09:19:29.112Z,5.10
2023-04-04T09:21:56.870Z,5.20
2023-04-04T09:24:23.706Z,5.50
2023-04-04T09:26:53.971Z,5.60
2023-04-04T09:29:21.971Z,5.80
2023-04-04T09:31:50.155Z,6.00
2023-04-04T09:34:19.395Z,6.00
2023-04-04T09:36:46.866Z,6.10
2023-04-04T09:39:16.692Z,6.20
2023-04-04T09:41:45.875Z,6.50
2023-04-04T09:44:13.266Z,6.50
2023-04-04T09:46:41.562Z,6.50
2023-04-04T09:49:13.268Z,6.60
2023-04-04T09:51:43.359Z,6.60
2023-04-04T09:54:18.593Z,6.40
2023-04-04T09:56:50.536Z,6.40
2023-04-04T09:59:21.142Z,6.30
2023-04-04T10:01:51.593Z,6.50
2023-04-04T10:04:19.220Z,6.40
2023-04-04T10:06:46.351Z,6.40
2023-04-04T10:09:13.543Z,6.40
2023-04-04T10:11:40.307Z,6.50
2023-04-04T10:14:09.215Z,6.50
2023-04-04T10:16:39.225Z,6.50
2023-04-04T10:19:08.839Z,6.50
2023-04-04T10:21:36.088Z,6.60
2023-04-04T10:24:09.286Z,6.70
2023-04-04T10:26:36.951Z,6.90
2023-04-04T10:29:05.985Z,7.10
2023-04-04T10:31:38.396Z,7.00
2023-04-04T10:34:20.542Z,7.20
2023-04-04T10:36:52.705Z,7.20
2023-04-04T10:39:27.249Z,7.20
2023-04-04T10:41:56.584Z,7.40
2023-04-04T10:44:35.321Z,7.40
2023-04-04T10:47:14.681Z,7.50
2023-04-04T10:49:45.026Z,7.60
2023-04-04T10:52:18.297Z,7.50
2023-04-04T10:54:45.688Z,7.30
2023-04-04T10:57:16.238Z,7.30
2023-04-04T11:00:06.563Z,7.40
2023-04-04T11:02:53.456Z,7.30
2023-04-04T11:05:37.571Z,7.30
2023-04-04T11:08:09.017Z,7.20
2023-04-04T11:10:39.396Z,7.30
2023-04-04T11:13:32.661Z,7.40
2023-04-04T11:16:10.236Z,7.40
2023-04-04T11:18:43.602Z,7.50
2023-04-04T11:21:24.116Z,7.50
2023-04-04T11:24:13.269Z,7.40
2023-04-04T11:26:42.829Z,7.40
2023-04-04T11:29:13.628Z,7.30
2023-04-04T11:31:43.976Z,7.30
2023-04-04T11:34:16.219Z,7.40
2023-04-04T11:36:45.117Z,7.40
2023-04-04T11:39:30.129Z,7.50
2023-04-04T11:42:17.719Z,7.50
2023-04-04T11:45:06.938Z,7.30
2023-04-04T11:47:33.872Z,7.30
2023-04-04T11:50:02.526Z,7.10
2023-04-04T11:52:36.408Z,7.10
2023-04-04T11:55:13.984Z,7.20
2023-04-04T11:57:42.444Z,7.20
2023-04-04T12:00:12.322Z,7.30
2023-04-04T12:02:39.693Z,7.20
2023-04-04T12:05:08.249Z,7.20
2023-04-04T12:07:35.530Z,7.10
2023-04-04T12:10:03.392Z,7.00
2023-04-04T12:12:30.239Z,6.90
2023-04-04T12:15:06.752Z,7.00
2023-04-04T12:17:45.798Z,6.90
2023-04-04T12:20:16.547Z,7.00
2023-04-04T12:22:44.058Z,7.00
2023-04-04T12:25:11.384Z,7.10
2023-04-04T12:27:38.594Z,7.20
2023-04-04T12:30:10.997Z,7.10
2023-04-04T12:32:37.997Z,6.80
2023-04-04T12:35:06.060Z,6.60
2023-04-04T12:37:33.235Z,6.60
2023-04-04T12:40:03.275Z,6.50
2023-04-04T12:42:32.109Z,6.50
2023-04-04T12:45:02.113Z,6.40
2023-04-04T12:47:31.413Z,6.40
2023-04-04T12:49:58.255Z,6.50
2023-04-04T12:52:33.650Z,6.50
2023-04-04T12:55:10.025Z,6.40
2023-04-04T12:57:39.452Z,6.40
2023-04-04T13:00:09.031Z,6.30
2023-04-04T13:02:37.443Z,6.20
2023-04-04T13:05:07.447Z,6.30
2023-04-04T13:07:43.028Z,6.50
2023-04-04T13:10:14.815Z,6.40
2023-04-04T13:13:02.432Z,6.50
2023-04-04T13:15:48.140Z,6.60
2023-04-04T13:18:16.983Z,6.60
2023-04-04T13:20:44.025Z,6.60
2023-04-04T13:23:10.925Z,6.80
2023-04-04T13:25:38.610Z,6.80
2023-04-04T13:28:06.370Z,6.80
2023-04-04T13:30:33.972Z,6.70
2023-04-04T13:33:00.840Z,6.60
2023-04-04T13:35:27.762Z,6.60
2023-04-04T13:37:54.555Z,6.70
2023-04-04T13:40:21.413Z,6.60
2023-04-04T13:42:48.306Z,6.60
2023-04-04T13:45:15.482Z,6.50
2023-04-04T13:47:42.377Z,6.60
2023-04-04T13:50:09.562Z,6.50
2023-04-04T13:52:36.345Z,6.60
2023-04-04T13:55:06.041Z,6.60
2023-04-04T13:57:33.134Z,6.60
2023-04-04T14:00:00.006Z,6.60
2023-04-04T14:02:26.899Z,6.50
2023-04-04T14:04:53.737Z,6.50
2023-04-04T14:07:20.488Z,6.30
2023-04-04T14:09:47.436Z,6.30
2023-04-04T14:12:17.963Z,6.40
2023-04-04T14:14:44.805Z,6.40
2023-04-04T14:17:11.653Z,6.30
2023-04-04T14:19:39.878Z,6.20
2023-04-04T14:22:07.428Z,6.20
2023-04-04T14:24:34.336Z,6.20
2023-04-04T14:27:24.267Z,6.00
2023-04-04T14:33:46.349Z,6.00
2023-04-04T14:36:13.410Z,6.10
2023-04-04T14:38:40.305Z,6.00
2023-04-04T14:41:07.669Z,6.00
2023-04-04T14:43:38.325Z,6.10
2023-04-04T14:46:06.393Z,6.10
2023-04-04T14:48:33.429Z,6.10
2023-04-04T14:51:01.226Z,5.90
2023-04-04T14:53:28.103Z,5.90
2023-04-04T14:55:54.931Z,6.00
2023-04-04T14:58:21.692Z,6.00
2023-04-04T15:00:49.409Z,5.90
2023-04-04T15:03:16.587Z,5.80
2023-04-04T15:05:43.486Z,5.70
2023-04-04T15:08:10.487Z,5.80
2023-04-04T15:10:37.284Z,5.80
2023-04-04T15:13:04.131Z,5.80
2023-04-04T15:15:31.501Z,5.80
2023-04-04T15:17:58.355Z,5.80
2023-04-04T15:20:25.216Z,5.80
2023-04-04T15:22:52.055Z,5.80
2023-04-04T15:25:18.815Z,5.80
2023-04-04T15:27:45.903Z,5.80
2023-04-04T15:30:13.589Z,5.90
2023-04-04T15:32:40.370Z,5.80
2023-04-04T15:35:15.062Z,5.50
2023-04-04T15:37:44.539Z,5.60
2023-04-04T15:40:12.413Z,5.70
2023-04-04T15:42:39.514Z,5.60
2023-04-04T15:45:07.251Z,5.70
2023-04-04T15:47:34.741Z,5.70
2023-04-04T15:50:01.928Z,5.70
2023-04-04T15:52:28.841Z,5.70
2023-04-04T15:54:55.871Z,5.70
2023-04-04T15:57:22.715Z,5.60
2023-04-04T15:59:52.356Z,5.60
2023-04-04T16:02:19.899Z,5.70
2023-04-04T16:04:46.704Z,5.60
2023-04-04T16:07:13.492Z,5.70
2023-04-04T16:09:40.345Z,5.50
2023-04-04T16:12:07.141Z,5.50
2023-04-04T16:14:33.924Z,5.50
2023-04-04T16:17:02.725Z,5.50
2023-04-04T16:19:29.556Z,5.50
2023-04-04T16:21:56.461Z,5.50
2023-04-04T16:24:23.182Z,5.40
2023-04-04T16:26:50.183Z,5.30
2023-04-04T16:29:18.481Z,5.30
2023-04-04T16:31:45.914Z,5.40
2023-04-04T16:34:12.839Z,5.30
2023-04-04T16:36:39.705Z,5.40
2023-04-04T16:39:07.046Z,5.50
2023-04-04T16:41:36.678Z,5.50
2023-04-04T16:44:03.524Z,5.40
2023-04-04T16:46:30.495Z,5.40
2023-04-04T16:48:57.435Z,5.40
2023-04-04T16:51:24.403Z,5.40
2023-04-04T16:53:51.160Z,5.40
2023-04-04T16:56:17.986Z,5.30
2023-04-04T16:58:45.778Z,5.30
2023-04-04T17:01:18.100Z,5.20
2023-04-04T17:03:45.074Z,5.10
2023-04-04T17:06:12.550Z,5.10
2023-04-04T17:08:40.768Z,5.10
2023-04-04T17:11:08.207Z,5.20
2023-04-04T17:13:35.588Z,5.20
2023-04-04T17:16:02.531Z,5.20
2023-04-04T17:18:29.582Z,5.10
2023-04-04T17:20:56.352Z,5.20
2023-04-04T17:23:23.141Z,5.20
2023-04-04T17:25:49.913Z,5.20
2023-04-04T17:28:16.771Z,5.10
2023-04-04T17:30:43.662Z,5.10
2023-04-04T17:33:10.504Z,5.10
2023-04-04T17:35:37.471Z,5.10
2023-04-04T17:38:04.236Z,5.00
2023-04-04T17:40:31.192Z,4.90
2023-04-04T17:42:57.981Z,4.90
2023-04-04T17:45:24.856Z,4.90
2023-04-04T17:47:51.647Z,5.00
2023-04-04T17:50:18.504Z,5.00
2023-04-04T17:52:45.252Z,4.90
2023-04-04T17:55:12.301Z,5.00
2023-04-04T17:57:39.850Z,4.90
2023-04-04T18:00:07.536Z,4.90
2023-04-04T18:02:34.362Z,4.90
2023-04-04T18:05:01.227Z,4.90
2023-04-04T18:07:28.005Z,4.80
2023-04-04T18:09:54.753Z,4.80
2023-04-04T18:12:22.242Z,4.80
2023-04-04T18:14:49.196Z,4.80
2023-04-04T18:17:16.018Z,4.80
2023-04-04T18:19:42.833Z,4.80
2023-04-04T18:22:09.818Z,4.70
2023-04-04T18:24:37.334Z,4.60
2023-04-04T18:27:04.141Z,4.60
2023-04-04T18:29:32.757Z,4.60
2023-04-04T18:32:03.861Z,4.60
2023-04-04T18:34:31.071Z,4.40
2023-04-04T18:36:58.350Z,4.50
2023-04-04T18:39:25.200Z,4.50
2023-04-04T18:41:52.162Z,4.50
2023-04-04T18:44:19.084Z,4.50
2023-04-04T18:46:45.917Z,4.60
2023-04-04T18:49:12.808Z,4.60
2023-04-04T18:51:39.601Z,4.50
2023-04-04T18:54:06.559Z,4.50
2023-04-04T18:56:33.359Z,4.50
2023-04-04T18:59:00.275Z,4.40
2023-04-04T19:01:27.507Z,4.50
2023-04-04T19:03:55.461Z,4.50
2023-04-04T19:06:26.837Z,4.50
2023-04-04T19:08:57.505Z,4.50
2023-04-04T19:11:25.369Z,4.60
2023-04-04T19:13:52.729Z,4.60
2023-04-04T19:16:19.676Z,4.50
2023-04-04T19:18:46.575Z,4.50
2023-04-04T19:21:13.395Z,4.40
2023-04-04T19:23:40.254Z,4.40
2023-04-04T19:26:07.594Z,4.40
2023-04-04T19:28:34.846Z,4.40
2023-04-04T19:31:04.545Z,4.40
2023-04-04T19:33:33.297Z,4.50
2023-04-04T19:36:06.476Z,4.50
2023-04-04T19:38:35.923Z,4.50
2023-04-04T19:41:28.209Z,4.40
2023-04-04T19:43:54.970Z,4.40
2023-04-04T19:46:27.412Z,4.50
2023-04-04T19:49:13.626Z,4.50
2023-04-04T19:51:48.505Z,4.50
2023-04-04T19:54:15.494Z,4.70
2023-04-04T19:56:45.034Z,4.70
2023-04-04T19:59:51.051Z,4.70
2023-04-04T20:02:47.449Z,4.70
2023-04-04T20:05:29.601Z,4.60
2023-04-04T20:07:56.407Z,4.70
2023-04-04T20:10:41.327Z,4.70
2023-04-04T20:13:08.981Z,4.70
2023-04-04T20:15:45.184Z,4.80
2023-04-04T20:18:21.094Z,4.80
2023-04-04T20:21:00.768Z,4.80
2023-04-04T20:23:28.705Z,4.80
2023-04-04T20:25:56.633Z,4.90
2023-04-04T20:28:28.082Z,4.90
2023-04-04T20:30:55.318Z,5.00
2023-04-04T20:33:39.291Z,4.80
2023-04-04T20:36:07.912Z,4.90
2023-04-04T20:38:37.020Z,4.80
2023-04-04T20:41:09.924Z,4.80
2023-04-04T20:43:37.311Z,4.80
2023-04-04T20:46:04.605Z,4.90
2023-04-04T20:48:39.857Z,4.90
2023-04-04T20:51:28.443Z,4.90
2023-04-04T20:54:00.975Z,4.90
2023-04-04T20:56:39.952Z,4.80
2023-04-04T20:59:24.595Z,4.80
2023-04-04T21:01:51.501Z,4.80
2023-04-04T21:04:26.016Z,4.70
2023-04-04T21:06:53.374Z,4.70
2023-04-04T21:09:20.510Z,4.70
2023-04-04T21:11:47.490Z,4.40
2023-04-04T21:14:28.254Z,4.30
2023-04-04T21:16:55.092Z,4.50
2023-04-04T21:19:23.476Z,4.40
2023-04-04T21:21:51.208Z,4.40
2023-04-04T21:24:18.138Z,4.40
2023-04-04T21:26:44.917Z,4.50
2023-04-04T21:29:16.721Z,4.50
2023-04-04T21:31:43.892Z,4.50
2023-04-04T21:34:19.941Z,4.60
2023-04-04T21:36:47.571Z,4.60
2023-04-04T21:39:23.797Z,4.50
2023-04-04T21:41:53.934Z,4.60
2023-04-04T21:44:20.763Z,4.50
2023-04-04T21:46:51.304Z,4.50
2023-04-04T21:49:18.268Z,4.40
2023-04-04T21:51:45.091Z,4.50
2023-04-04T21:54:11.923Z,4.40
2023-04-04T21:56:38.918Z,4.50
2023-04-04T21:59:08.927Z,4.50
2023-04-04T22:01:37.506Z,4.50
2023-04-04T22:04:04.412Z,4.50
2023-04-04T22:06:31.314Z,4.50
2023-04-04T22:08:59.958Z,4.50
2023-04-04T22:11:27.609Z,4.60
2023-04-04T22:14:03.506Z,4.60
2023-04-04T22:16:31.333Z,4.60
2023-04-04T22:18:58.970Z,4.60
2023-04-04T22:21:25.983Z,4.50
2023-04-04T22:24:03.084Z,4.50
2023-04-04T22:26:35.876Z,4.40
2023-04-04T22:29:04.237Z,4.40
2023-04-04T22:31:31.816Z,4.40
2023-04-04T22:33:58.637Z,4.40
2023-04-04T22:36:25.508Z,4.40
2023-04-04T22:38:57.397Z,4.40
2023-04-04T22:41:30.246Z,4.30
2023-04-04T22:43:57.849Z,4.30
2023-04-04T22:46:26.053Z,4.40
2023-04-04T22:49:06.502Z,4.40
2023-04-04T22:51:45.153Z,4.30
2023-04-04T22:54:17.342Z,4.30
2023-04-04T22:56:44.226Z,4.30
2023-04-04T22:59:11.318Z,4.30
2023-04-04T23:01:38.407Z,4.30
2023-04-04T23:04:05.730Z,4.40
2023-04-04T23:06:32.637Z,4.40
2023-04-04T23:08:59.472Z,4.40
2023-04-04T23:11:27.380Z,4.40
2023-04-04T23:13:54.423Z,4.40
2023-04-04T23:16:23.480Z,4.40
2023-04-04T23:18:50.440Z,4.40
2023-04-04T23:21:17.222Z,4.40
2023-04-04T23:23:44.040Z,4.30
2023-04-04T23:26:11.073Z,4.30
2023-04-04T23:28:37.897Z,4.40
2023-04-04T23:31:04.773Z,4.40
2023-04-04T23:33:31.647Z,4.50
2023-04-04T23:35:58.430Z,4.40
2023-04-04T23:38:25.423Z,4.40
2023-04-04T23:40:53.739Z,4.40
2023-04-04T23:43:20.508Z,4.30
2023-04-04T23:45:47.568Z,4.20
2023-04-04T23:48:14.507Z,4.10
2023-04-04T23:50:41.865Z,4.10
2023-04-04T23:53:08.876Z,4.10
2023-04-04T23:55:35.735Z,4.10
2023-04-04T23:58:03.507Z,4.20
